sensor_id;sensor_type;location;lat;lon;timestamp;pressure;altitude;pressure_sealevel;temperature;humidity
9325;BME280;4701;51.566;6.776;2023-03-26T07:03:41;99982.81;;;7.36;99.78
9325;BME280;4701;51.566;6.776;2023-03-26T07:07:01;99977.16;;;7.43;100.00
9325;BME280;4701;51.566;6.776;2023-03-26T07:10:39;99972.28;;;7.50;100.00
9325;BME280;4701;51.566;6.776;2023-03-26T07:14:01;99966.34;;;7.58;100.00
9325;BME280;4701;51.566;6.776;2023-03-26T07:17:21;99957.69;;;7.66;100.00
9325;BME280;4701;51.566;6.776;2023-03-26T07:20:30;99961.25;;;7.72;100.00
9325;BME280;4701;51.566;6.776;2023-03-26T07:23:32;99955.31;;;7.80;100.00
9325;BME280;4701;51.566;6.776;2023-03-26T07:27:03;99946.09;;;7.86;100.00
9325;BME280;4701;51.566;6.776;2023-03-26T07:30:14;99941.78;;;7.90;100.00
9325;BME280;4701;51.566;6.776;2023-03-26T07:33:52;99941.25;;;7.98;100.00
9325;BME280;4701;51.566;6.776;2023-03-26T07:37:26;99942.06;;;8.04;100.00
9325;BME280;4701;51.566;6.776;2023-03-26T07:40:58;99933.66;;;8.10;100.00
9325;BME280;4701;51.566;6.776;2023-03-26T07:44:38;99933.38;;;8.17;100.00
9325;BME280;4701;51.566;6.776;2023-03-26T07:47:52;99923.38;;;8.22;100.00
9325;BME280;4701;51.566;6.776;2023-03-26T07:51:17;99921.19;;;8.29;100.00
9325;BME280;4701;51.566;6.776;2023-03-26T07:54:42;99923.09;;;8.34;100.00
9325;BME280;4701;51.566;6.776;2023-03-26T07:58:14;99913.06;;;8.40;100.00
9325;BME280;4701;51.566;6.776;2023-03-26T08:01:48;99912.25;;;8.44;100.00
9325;BME280;4701;51.566;6.776;2023-03-26T08:05:19;99902.47;;;8.48;100.00
9325;BME280;4701;51.566;6.776;2023-03-26T08:08:59;99898.13;;;8.52;99.73
9325;BME280;4701;51.566;6.776;2023-03-26T08:12:27;99904.91;;;8.55;98.90
9325;BME280;4701;51.566;6.776;2023-03-26T08:15:35;99898.94;;;8.58;98.70
9325;BME280;4701;51.566;6.776;2023-03-26T08:18:46;99896.47;;;8.61;98.69
9325;BME280;4701;51.566;6.776;2023-03-26T08:21:56;99895.13;;;8.64;98.91
9325;BME280;4701;51.566;6.776;2023-03-26T08:25:17;99893.78;;;8.66;98.80
9325;BME280;4701;51.566;6.776;2023-03-26T08:28:32;99892.69;;;8.67;98.19
9325;BME280;4701;51.566;6.776;2023-03-26T08:31:38;99889.41;;;8.70;97.82
9325;BME280;4701;51.566;6.776;2023-03-26T08:34:41;99890.75;;;8.73;97.86
9325;BME280;4701;51.566;6.776;2023-03-26T08:37:45;99896.75;;;8.75;97.91
9325;BME280;4701;51.566;6.776;2023-03-26T08:48:44;99891.56;;;8.79;97.76
9325;BME280;4701;51.566;6.776;2023-03-26T08:55:34;99885.59;;;8.82;97.26
9325;BME280;4701;51.566;6.776;2023-03-26T08:58:59;99892.38;;;8.84;97.15
9325;BME280;4701;51.566;6.776;2023-03-26T09:06:28;99890.19;;;8.86;96.45
9325;BME280;4701;51.566;6.776;2023-03-26T09:09:56;99892.63;;;8.88;96.96
9325;BME280;4701;51.566;6.776;2023-03-26T09:17:21;99888.81;;;8.89;96.59
9325;BME280;4701;51.566;6.776;2023-03-26T09:20:53;99885.56;;;8.92;97.36
9325;BME280;4701;51.566;6.776;2023-03-26T09:24:23;99887.97;;;8.93;96.75
9325;BME280;4701;51.566;6.776;2023-03-26T09:27:38;99879.56;;;8.95;97.17
9325;BME280;4701;51.566;6.776;2023-03-26T09:30:58;99879.56;;;8.95;96.78
9325;BME280;4701;51.566;6.776;2023-03-26T09:34:26;99880.09;;;8.97;96.75
9325;BME280;4701;51.566;6.776;2023-03-26T09:37:40;99880.09;;;8.97;97.19
9325;BME280;4701;51.566;6.776;2023-03-26T09:40:52;99875.22;;;8.99;97.11
9325;BME280;4701;51.566;6.776;2023-03-26T09:44:22;99877.66;;;9.00;97.07
9325;BME280;4701;51.566;6.776;2023-03-26T09:47:42;99879.28;;;9.01;97.26
9325;BME280;4701;51.566;6.776;2023-03-26T09:51:28;99884.41;;;9.03;97.39
9325;BME280;4701;51.566;6.776;2023-03-26T09:54:57;99873.03;;;9.01;97.38
9325;BME280;4701;51.566;6.776;2023-03-26T09:58:39;99873.53;;;9.03;96.91
9325;BME280;4701;51.566;6.776;2023-03-26T10:01:46;99873.53;;;9.03;97.32
9325;BME280;4701;51.566;6.776;2023-03-26T10:05:03;99872.47;;;9.04;97.23
9325;BME280;4701;51.566;6.776;2023-03-26T10:08:33;99875.19;;;9.04;96.99
9325;BME280;4701;51.566;6.776;2023-03-26T10:11:55;99871.91;;;9.07;97.08
9325;BME280;4701;51.566;6.776;2023-03-26T10:15:07;99867.28;;;9.07;96.93
9325;BME280;4701;51.566;6.776;2023-03-26T10:18:19;99867.84;;;9.09;97.10
9325;BME280;4701;51.566;6.776;2023-03-26T10:21:33;99858.56;;;9.10;96.72
9325;BME280;4701;51.566;6.776;2023-03-26T10:24:52;99864.53;;;9.13;96.69
9325;BME280;4701;51.566;6.776;2023-03-26T10:28:12;99862.63;;;9.13;96.45
9325;BME280;4701;51.566;6.776;2023-03-26T10:31:34;99863.44;;;9.14;96.52
9325;BME280;4701;51.566;6.776;2023-03-26T10:35:07;99864.00;;;9.16;96.94
9325;BME280;4701;51.566;6.776;2023-03-26T10:38:15;99858.84;;;9.14;97.16
9325;BME280;4701;51.566;6.776;2023-03-26T10:41:24;99864.81;;;9.16;96.90
9325;BME280;4701;51.566;6.776;2023-03-26T10:44:49;99864.53;;;9.18;96.79
9325;BME280;4701;51.566;6.776;2023-03-26T10:48:21;99866.94;;;9.19;97.31
9325;BME280;4701;51.566;6.776;2023-03-26T10:51:45;99862.63;;;9.18;97.24
9325;BME280;4701;51.566;6.776;2023-03-26T10:54:54;99866.94;;;9.19;96.89
9325;BME280;4701;51.566;6.776;2023-03-26T10:58:07;99861.25;;;9.21;96.61
9325;BME280;4701;51.566;6.776;2023-03-26T11:01:36;99865.88;;;9.20;97.20
9325;BME280;4701;51.566;6.776;2023-03-26T11:04:48;99855.00;;;9.20;97.07
9325;BME280;4701;51.566;6.776;2023-03-26T11:07:58;99867.50;;;9.21;96.76
9325;BME280;4701;51.566;6.776;2023-03-26T11:11:09;99859.63;;;9.20;96.46
9325;BME280;4701;51.566;6.776;2023-03-26T11:14:20;99860.44;;;9.20;96.71
9325;BME280;4701;51.566;6.776;2023-03-26T11:17:35;99862.06;;;9.21;96.46
9325;BME280;4701;51.566;6.776;2023-03-26T11:20:46;99864.22;;;9.19;96.79
9325;BME280;4701;51.566;6.776;2023-03-26T11:24:00;99856.63;;;9.21;96.05
9325;BME280;4701;51.566;6.776;2023-03-26T11:27:07;99856.63;;;9.21;96.05
9325;BME280;4701;51.566;6.776;2023-03-26T11:30:20;99852.28;;;9.20;96.00
9325;BME280;4701;51.566;6.776;2023-03-26T11:33:28;99864.22;;;9.24;96.09
9325;BME280;4701;51.566;6.776;2023-03-26T11:36:37;99852.53;;;9.24;96.64
9325;BME280;4701;51.566;6.776;2023-03-26T11:39:47;99860.41;;;9.25;96.37
9325;BME280;4701;51.566;6.776;2023-03-26T11:42:57;99857.16;;;9.23;94.78
9325;BME280;4701;51.566;6.776;2023-03-26T11:46:02;99859.34;;;9.21;94.34
9325;BME280;4701;51.566;6.776;2023-03-26T11:49:07;99860.44;;;9.20;94.15
9325;BME280;4701;51.566;6.776;2023-03-26T11:52:12;99863.41;;;9.19;93.79
9325;BME280;4701;51.566;6.776;2023-03-26T11:55:15;99865.34;;;9.18;94.07
9325;BME280;4701;51.566;6.776;2023-03-26T11:58:28;99860.19;;;9.17;93.67
9325;BME280;4701;51.566;6.776;2023-03-26T12:01:42;99856.94;;;9.15;93.53
9325;BME280;4701;51.566;6.776;2023-03-26T12:04:51;99854.47;;;9.13;93.65
9325;BME280;4701;51.566;6.776;2023-03-26T12:07:58;99857.19;;;9.13;94.16
9325;BME280;4701;51.566;6.776;2023-03-26T12:11:07;99854.75;;;9.11;94.28
9325;BME280;4701;51.566;6.776;2023-03-26T12:14:15;99855.06;;;9.10;93.68
9325;BME280;4701;51.566;6.776;2023-03-26T12:17:25;99854.50;;;9.08;94.34
9325;BME280;4701;51.566;6.776;2023-03-26T12:20:34;99864.31;;;9.09;93.94
9325;BME280;4701;51.566;6.776;2023-03-26T12:23:54;99859.38;;;9.11;93.93
9325;BME280;4701;51.566;6.776;2023-03-26T12:26:58;99846.91;;;9.10;94.26
9325;BME280;4701;51.566;6.776;2023-03-26T12:30:10;99857.47;;;9.11;94.97
9325;BME280;4701;51.566;6.776;2023-03-26T12:33:15;99859.09;;;9.13;94.14
9325;BME280;4701;51.566;6.776;2023-03-26T12:36:24;99858.84;;;9.14;94.05
9325;BME280;4701;51.566;6.776;2023-03-26T12:39:32;99853.94;;;9.16;94.98
9325;BME280;4701;51.566;6.776;2023-03-26T12:42:39;99850.13;;;9.17;94.71
9325;BME280;4701;51.566;6.776;2023-03-26T12:45:43;99847.91;;;9.19;94.67
9325;BME280;4701;51.566;6.776;2023-03-26T12:48:48;99850.09;;;9.22;95.02
9325;BME280;4701;51.566;6.776;2023-03-26T12:51:53;99853.34;;;9.24;94.98
9325;BME280;4701;51.566;6.776;2023-03-26T12:55:12;99861.75;;;9.28;94.62
9325;BME280;4701;51.566;6.776;2023-03-26T12:58:36;99854.13;;;9.30;94.93
9325;BME280;4701;51.566;6.776;2023-03-26T13:01:48;99856.03;;;9.29;94.28
9325;BME280;4701;51.566;6.776;2023-03-26T13:05:15;99861.19;;;9.31;94.00
9325;BME280;4701;51.566;6.776;2023-03-26T13:08:36;99868.28;;;9.32;94.59
9325;BME280;4701;51.566;6.776;2023-03-26T13:11:54;99862.00;;;9.31;93.71
9325;BME280;4701;51.566;6.776;2023-03-26T13:15:22;99863.09;;;9.30;94.18
9325;BME280;4701;51.566;6.776;2023-03-26T13:18:58;99870.44;;;9.30;94.59
9325;BME280;4701;51.566;6.776;2023-03-26T13:22:26;99865.81;;;9.30;94.15
9325;BME280;4701;51.566;6.776;2023-03-26T13:25:37;99862.56;;;9.28;94.14
9325;BME280;4701;51.566;6.776;2023-03-26T13:28:50;99863.09;;;9.30;93.80
9325;BME280;4701;51.566;6.776;2023-03-26T13:32:03;99861.75;;;9.28;94.10
9325;BME280;4701;51.566;6.776;2023-03-26T13:35:20;99860.66;;;9.29;94.00
9325;BME280;4701;51.566;6.776;2023-03-26T13:38:35;99868.00;;;9.28;93.30
9325;BME280;4701;51.566;6.776;2023-03-26T13:42:14;99866.38;;;9.27;93.51
9325;BME280;4701;51.566;6.776;2023-03-26T13:45:32;99856.88;;;9.25;93.83
9325;BME280;4701;51.566;6.776;2023-03-26T13:48:45;99869.91;;;9.28;93.92
9325;BME280;4701;51.566;6.776;2023-03-26T13:51:54;99869.91;;;9.28;94.35
9325;BME280;4701;51.566;6.776;2023-03-26T13:55:06;99862.28;;;9.30;94.26
9325;BME280;4701;51.566;6.776;2023-03-26T13:58:23;99870.19;;;9.31;94.25
9325;BME280;4701;51.566;6.776;2023-03-26T14:01:31;99872.91;;;9.31;94.38
9325;BME280;4701;51.566;6.776;2023-03-26T14:04:43;99866.91;;;9.34;94.25
9325;BME280;4701;51.566;6.776;2023-03-26T14:07:50;99871.53;;;9.34;94.20
9325;BME280;4701;51.566;6.776;2023-03-26T14:10:57;99878.28;;;9.36;94.02
9325;BME280;4701;51.566;6.776;2023-03-26T14:14:05;99879.41;;;9.35;93.72
9325;BME280;4701;51.566;6.776;2023-03-26T14:17:16;99870.44;;;9.35;93.90
9325;BME280;4701;51.566;6.776;2023-03-26T14:24:22;99878.84;;;9.38;93.70
9325;BME280;4701;51.566;6.776;2023-03-26T14:27:37;99882.66;;;9.37;93.59
9325;BME280;4701;51.566;6.776;2023-03-26T14:30:56;99887.28;;;9.37;92.93
9325;BME280;4701;51.566;6.776;2023-03-26T14:34:36;99885.63;;;9.36;93.33
9325;BME280;4701;51.566;6.776;2023-03-26T14:38:13;99896.50;;;9.36;93.15
9325;BME280;4701;51.566;6.776;2023-03-26T14:41:22;99907.69;;;9.34;92.52
9325;BME280;4701;51.566;6.776;2023-03-26T14:45:00;99905.25;;;9.33;93.08
9325;BME280;4701;51.566;6.776;2023-03-26T14:48:40;99908.25;;;9.31;93.52
9325;BME280;4701;51.566;6.776;2023-03-26T14:52:04;99915.59;;;9.31;93.42
9325;BME280;4701;51.566;6.776;2023-03-26T14:55:13;99922.13;;;9.30;92.83
9325;BME280;4701;51.566;6.776;2023-03-26T15:10:00;99938.19;;;9.21;93.31
9325;BME280;4701;51.566;6.776;2023-03-26T15:13:38;99945.81;;;9.19;93.35
9325;BME280;4701;51.566;6.776;2023-03-26T15:17:25;99953.44;;;9.17;93.83
9325;BME280;4701;51.566;6.776;2023-03-26T15:24:37;99954.53;;;9.11;94.02
9325;BME280;4701;51.566;6.776;2023-03-26T15:32:21;99964.34;;;9.07;94.02
9325;BME280;4701;51.566;6.776;2023-03-26T15:35:50;99977.38;;;9.05;93.72
9325;BME280;4701;51.566;6.776;2023-03-26T15:39:34;99977.91;;;9.02;94.43
9325;BME280;4701;51.566;6.776;2023-03-26T15:42:51;99984.19;;;8.97;94.26
9325;BME280;4701;51.566;6.776;2023-03-26T15:46:24;99990.72;;;8.96;94.51
9325;BME280;4701;51.566;6.776;2023-03-26T15:49:36;99997.81;;;8.92;94.19
9325;BME280;4701;51.566;6.776;2023-03-26T15:52:44;99999.97;;;8.90;94.26
9325;BME280;4701;51.566;6.776;2023-03-26T15:56:10;99998.59;;;8.88;94.43
9325;BME280;4701;51.566;6.776;2023-03-26T15:59:27;100014.38;;;8.86;93.71
9325;BME280;4701;51.566;6.776;2023-03-26T16:02:39;100021.19;;;8.83;94.30
9325;BME280;4701;51.566;6.776;2023-03-26T16:06:12;100023.34;;;8.81;93.53
9325;BME280;4701;51.566;6.776;2023-03-26T16:09:38;100028.50;;;8.78;94.02
9325;BME280;4701;51.566;6.776;2023-03-26T16:12:53;100032.03;;;8.73;92.96
9325;BME280;4701;51.566;6.776;2023-03-26T16:16:16;100044.25;;;8.70;93.15
9325;BME280;4701;51.566;6.776;2023-03-26T16:19:56;100047.00;;;8.65;92.36
9325;BME280;4701;51.566;6.776;2023-03-26T16:23:02;100048.59;;;8.61;92.42
9325;BME280;4701;51.566;6.776;2023-03-26T16:26:15;100063.81;;;8.57;92.04
9325;BME280;4701;51.566;6.776;2023-03-26T16:29:19;100076.84;;;8.55;92.07
9325;BME280;4701;51.566;6.776;2023-03-26T16:32:24;100065.44;;;8.53;92.38
9325;BME280;4701;51.566;6.776;2023-03-26T16:35:58;100082.00;;;8.52;92.22
9325;BME280;4701;51.566;6.776;2023-03-26T16:39:20;100082.56;;;8.49;92.29
9325;BME280;4701;51.566;6.776;2023-03-26T16:42:33;100089.06;;;8.48;92.24
9325;BME280;4701;51.566;6.776;2023-03-26T16:45:43;100099.38;;;8.46;92.79
9325;BME280;4701;51.566;6.776;2023-03-26T16:48:54;100104.25;;;8.44;92.56
9325;BME280;4701;51.566;6.776;2023-03-26T16:52:04;100111.56;;;8.43;92.74
9325;BME280;4701;51.566;6.776;2023-03-26T16:55:18;100122.72;;;8.42;91.94
9325;BME280;4701;51.566;6.776;2023-03-26T16:58:29;100124.63;;;8.41;92.04
9325;BME280;4701;51.566;6.776;2023-03-26T17:01:38;100135.19;;;8.38;91.92
9325;BME280;4701;51.566;6.776;2023-03-26T17:04:47;100141.69;;;8.37;91.60
9325;BME280;4701;51.566;6.776;2023-03-26T17:07:57;100151.19;;;8.34;91.16
9325;BME280;4701;51.566;6.776;2023-03-26T17:11:12;100150.66;;;8.32;91.04
9325;BME280;4701;51.566;6.776;2023-03-26T17:14:34;100155.75;;;8.28;90.85
9325;BME280;4701;51.566;6.776;2023-03-26T17:17:52;100169.06;;;8.25;90.07
9325;BME280;4701;51.566;6.776;2023-03-26T17:21:00;100175.03;;;8.22;89.80
9325;BME280;4701;51.566;6.776;2023-03-26T17:24:09;100182.88;;;8.18;89.32
9325;BME280;4701;51.566;6.776;2023-03-26T17:27:24;100196.16;;;8.15;88.84
9325;BME280;4701;51.566;6.776;2023-03-26T17:30:56;100206.97;;;8.10;87.93
9325;BME280;4701;51.566;6.776;2023-03-26T17:34:41;100208.34;;;8.07;87.79
9325;BME280;4701;51.566;6.776;2023-03-26T17:37:46;100218.59;;;8.00;87.07
9325;BME280;4701;51.566;6.776;2023-03-26T17:40:51;100226.19;;;7.98;86.72
9325;BME280;4701;51.566;6.776;2023-03-26T17:43:55;100229.44;;;7.95;86.68
9325;BME280;4701;51.566;6.776;2023-03-26T17:46:58;100231.81;;;7.91;86.34
9325;BME280;4701;51.566;6.776;2023-03-26T17:50:06;100244.03;;;7.89;86.41
9325;BME280;4701;51.566;6.776;2023-03-26T17:53:17;100254.06;;;7.88;86.52
9325;BME280;4701;51.566;6.776;2023-03-26T17:56:24;100259.19;;;7.85;86.58
9325;BME280;4701;51.566;6.776;2023-03-26T17:59:30;100266.78;;;7.83;86.46
9325;BME280;4701;51.566;6.776;2023-03-26T18:02:35;100272.75;;;7.80;86.27
9325;BME280;4701;51.566;6.776;2023-03-26T18:05:40;100284.09;;;7.77;85.97
9325;BME280;4701;51.566;6.776;2023-03-26T18:08:55;100300.63;;;7.75;86.29
9325;BME280;4701;51.566;6.776;2023-03-26T18:12:07;100305.78;;;7.72;86.03
9325;BME280;4701;51.566;6.776;2023-03-26T18:15:39;100316.31;;;7.68;85.80
9325;BME280;4701;51.566;6.776;2023-03-26T18:18:48;100314.91;;;7.66;85.70
9325;BME280;4701;51.566;6.776;2023-03-26T18:21:55;100323.59;;;7.63;85.41
9325;BME280;4701;51.566;6.776;2023-03-26T18:24:59;100325.97;;;7.59;84.49
9325;BME280;4701;51.566;6.776;2023-03-26T18:28:03;100332.19;;;7.54;84.24
9325;BME280;4701;51.566;6.776;2023-03-26T18:31:11;100336.47;;;7.50;83.91
9325;BME280;4701;51.566;6.776;2023-03-26T18:34:17;100339.97;;;7.46;83.34
9325;BME280;4701;51.566;6.776;2023-03-26T18:37:22;100353.78;;;7.44;83.27
9325;BME280;4701;51.566;6.776;2023-03-26T18:40:32;100360.78;;;7.40;82.45
9325;BME280;4701;51.566;6.776;2023-03-26T18:43:35;100359.66;;;7.36;81.40
9325;BME280;4701;51.566;6.776;2023-03-26T18:46:38;100367.47;;;7.33;81.56
9325;BME280;4701;51.566;6.776;2023-03-26T18:49:41;100375.56;;;7.28;80.92
9325;BME280;4701;51.566;6.776;2023-03-26T18:52:44;100375.22;;;7.24;80.43
9325;BME280;4701;51.566;6.776;2023-03-26T18:55:46;100392.84;;;7.21;79.92
9325;BME280;4701;51.566;6.776;2023-03-26T18:58:51;100389.81;;;7.18;80.15
9325;BME280;4701;51.566;6.776;2023-03-26T19:01:55;100397.66;;;7.14;79.97
9325;BME280;4701;51.566;6.776;2023-03-26T19:05:04;100388.94;;;7.12;79.65
9325;BME280;4701;51.566;6.776;2023-03-26T19:08:07;100404.88;;;7.09;79.63
9325;BME280;4701;51.566;6.776;2023-03-26T19:11:10;100414.31;;;7.06;79.10
9325;BME280;4701;51.566;6.776;2023-03-26T19:14:15;100413.78;;;7.04;78.83
9325;BME280;4701;51.566;6.776;2023-03-26T19:26:05;100440.97;;;6.93;77.44
9325;BME280;4701;51.566;6.776;2023-03-26T19:33:00;100458.72;;;6.83;78.42
9325;BME280;4701;51.566;6.776;2023-03-26T19:37:47;100467.91;;;6.82;78.23
9325;BME280;4701;51.566;6.776;2023-03-26T19:40:02;100473.03;;;6.79;77.79
9325;BME280;4701;51.566;6.776;2023-03-26T19:44:05;100485.16;;;6.76;78.26
9325;BME280;4701;51.566;6.776;2023-03-26T19:47:11;100485.91;;;6.72;77.88
9325;BME280;4701;51.566;6.776;2023-03-26T19:50:21;100494.53;;;6.69;77.89
9325;BME280;4701;51.566;6.776;2023-03-26T19:53:30;100496.06;;;6.65;77.64
9325;BME280;4701;51.566;6.776;2023-03-26T19:56:39;100510.13;;;6.62;77.18
9325;BME280;4701;51.566;6.776;2023-03-26T19:59:42;100523.09;;;6.60;76.67
9325;BME280;4701;51.566;6.776;2023-03-26T20:07:15;100538.44;;;6.54;77.07
9325;BME280;4701;51.566;6.776;2023-03-26T20:12:08;100547.03;;;6.51;76.74
9325;BME280;4701;51.566;6.776;2023-03-26T20:14:57;100553.75;;;6.49;76.72
9325;BME280;4701;51.566;6.776;2023-03-26T20:18:01;100557.53;;;6.47;77.13
9325;BME280;4701;51.566;6.776;2023-03-26T20:21:49;100566.16;;;6.44;75.99
9325;BME280;4701;51.566;6.776;2023-03-26T20:25:00;100578.03;;;6.43;75.57
9325;BME280;4701;51.566;6.776;2023-03-26T20:28:09;100588.53;;;6.40;74.80
9325;BME280;4701;51.566;6.776;2023-03-26T20:31:31;100596.78;;;6.33;74.73
9325;BME280;4701;51.566;6.776;2023-03-26T20:34:50;100599.75;;;6.32;75.15
9325;BME280;4701;51.566;6.776;2023-03-26T20:37:57;100606.22;;;6.31;74.47
9325;BME280;4701;51.566;6.776;2023-03-26T20:41:04;100616.97;;;6.26;74.32
9325;BME280;4701;51.566;6.776;2023-03-26T20:44:16;100621.19;;;6.22;74.80
9325;BME280;4701;51.566;6.776;2023-03-26T20:47:36;100626.88;;;6.20;74.78
9325;BME280;4701;51.566;6.776;2023-03-26T20:50:39;100631.09;;;6.16;74.92
9325;BME280;4701;51.566;6.776;2023-03-26T20:53:43;100641.56;;;6.13;74.79
9325;BME280;4701;51.566;6.776;2023-03-26T20:56:46;100643.97;;;6.09;75.35
9325;BME280;4701;51.566;6.776;2023-03-26T20:59:48;100650.66;;;6.06;75.16
